Terminal Aerodrome Forecast
Issued by NWS Shreveport, LA

Home | Current Version | Previous Version | Text Only | Print | Product List | Glossary On
Versions: 1 2 3 4 5 6 7 8 9 10 11 12 13 14 15
000
FTUS44 KSHV 191723
TAFLFK
TAF
KLFK 191723Z 1918/2018 09006KT P6SM FEW025 SCT250
     FM200000 11004KT P6SM SCT040 BKN250
     FM200600 11003KT P6SM BKN100 BKN250
     FM201100 09005KT 4SM BR OVC025
      TEMPO 2013/2016 OVC010
     FM201600 12011G17KT P6SM OVC025=

USA.gov is the U.S. government's official web portal to all federal, state and local government web resources and services.